createdAt,value
2023-03-17T00:02:13.832Z,2.42
2023-03-17T00:04:40.319Z,2.60
2023-03-17T00:07:06.720Z,2.38
2023-03-17T00:09:33.768Z,2.38
2023-03-17T00:12:00.388Z,2.63
2023-03-17T00:14:26.723Z,2.60
2023-03-17T00:16:53.213Z,2.30
2023-03-17T00:19:31.191Z,2.67
2023-03-17T00:21:58.145Z,2.38
2023-03-17T00:24:24.468Z,2.33
2023-03-17T00:26:50.759Z,2.65
2023-03-17T00:29:17.157Z,2.75
2023-03-17T00:31:45.162Z,2.65
2023-03-17T00:34:13.754Z,2.53
2023-03-17T00:36:48.190Z,2.63
2023-03-17T00:41:41.532Z,2.80
2023-03-17T00:44:07.843Z,2.72
2023-03-17T00:46:38.108Z,2.67
2023-03-17T00:49:10.597Z,2.80
2023-03-17T00:51:37.492Z,2.58
2023-03-17T00:54:03.928Z,2.65
2023-03-17T00:56:30.377Z,2.70
2023-03-17T00:58:56.736Z,2.78
2023-03-17T01:01:23.072Z,2.70
2023-03-17T01:03:49.396Z,2.78
2023-03-17T01:06:16.436Z,2.40
2023-03-17T01:08:44.691Z,2.85
2023-03-17T01:11:21.091Z,2.65
2023-03-17T01:13:47.758Z,2.53
2023-03-17T01:16:15.519Z,2.70
2023-03-17T01:18:42.272Z,3.00
2023-03-17T01:21:08.602Z,2.78
2023-03-17T01:23:35.045Z,2.78
2023-03-17T01:26:01.611Z,2.60
2023-03-17T01:28:28.215Z,2.67
2023-03-17T01:30:54.527Z,3.15
2023-03-17T01:33:20.856Z,2.70
2023-03-17T01:35:47.247Z,2.40
2023-03-17T01:38:14.121Z,2.55
2023-03-17T01:40:48.017Z,2.40
2023-03-17T01:43:25.513Z,1.92
2023-03-17T01:46:30.420Z,2.47
2023-03-17T01:49:15.524Z,2.45
2023-03-17T01:51:42.834Z,2.60
2023-03-17T01:54:18.652Z,1.95
2023-03-17T01:56:47.286Z,2.30
2023-03-17T01:59:16.873Z,2.30
2023-03-17T02:01:44.928Z,2.45
2023-03-17T02:04:11.857Z,2.63
2023-03-17T02:06:47.501Z,2.30
2023-03-17T02:09:21.632Z,2.35
2023-03-17T02:11:48.004Z,2.10
2023-03-17T02:14:14.639Z,2.60
2023-03-17T02:16:41.036Z,2.35
2023-03-17T02:19:07.990Z,2.35
2023-03-17T02:21:37.199Z,2.40
2023-03-17T02:24:05.951Z,2.47
2023-03-17T02:26:33.008Z,2.30
2023-03-17T02:28:59.386Z,2.33
2023-03-17T02:31:26.800Z,2.38
2023-03-17T02:33:53.701Z,2.40
2023-03-17T02:36:20.460Z,2.33
2023-03-17T02:38:47.410Z,2.13
2023-03-17T02:41:14.076Z,2.60
2023-03-17T02:43:41.440Z,2.30
2023-03-17T02:46:08.439Z,2.60
2023-03-17T02:48:36.605Z,2.60
2023-03-17T02:51:03.418Z,2.25
2023-03-17T02:53:29.755Z,2.30
2023-03-17T02:55:56.803Z,2.05
2023-03-17T02:58:23.238Z,2.22
2023-03-17T03:00:49.818Z,1.90
2023-03-17T03:03:16.205Z,2.33
2023-03-17T03:05:42.770Z,2.50
2023-03-17T03:08:09.346Z,2.30
2023-03-17T03:10:36.187Z,2.10
2023-03-17T03:13:03.168Z,2.13
2023-03-17T03:15:29.628Z,2.10
2023-03-17T03:17:56.302Z,1.90
2023-03-17T03:20:22.826Z,2.38
2023-03-17T03:22:49.201Z,1.85
2023-03-17T03:25:16.115Z,2.17
2023-03-17T03:27:45.762Z,1.77
2023-03-17T03:30:12.217Z,2.15
2023-03-17T03:32:38.628Z,2.08
2023-03-17T03:35:05.250Z,2.10
2023-03-17T03:37:31.653Z,1.80
2023-03-17T03:39:58.050Z,2.13
2023-03-17T03:42:24.369Z,2.20
2023-03-17T03:44:50.838Z,2.10
2023-03-17T03:47:17.125Z,2.00
2023-03-17T03:49:43.505Z,1.88
2023-03-17T03:52:09.920Z,2.00
2023-03-17T03:54:36.303Z,2.10
2023-03-17T03:57:02.709Z,2.00
2023-03-17T03:59:30.317Z,2.33
2023-03-17T04:01:56.696Z,2.05
2023-03-17T04:04:23.121Z,2.05
2023-03-17T04:06:49.542Z,1.80
2023-03-17T04:09:18.473Z,2.10
2023-03-17T04:11:44.769Z,2.03
2023-03-17T04:14:11.129Z,1.83
2023-03-17T04:16:43.259Z,2.28
2023-03-17T04:19:11.218Z,2.15
2023-03-17T04:21:37.563Z,2.08
2023-03-17T04:24:07.894Z,2.28
2023-03-17T04:26:34.180Z,2.17
2023-03-17T04:29:00.552Z,2.20
2023-03-17T04:31:27.466Z,2.33
2023-03-17T04:33:53.824Z,1.95
2023-03-17T04:36:21.592Z,2.10
2023-03-17T04:38:47.951Z,1.90
2023-03-17T04:41:14.607Z,2.20
2023-03-17T04:43:41.924Z,2.30
2023-03-17T04:46:09.087Z,2.00
2023-03-17T04:48:36.175Z,2.03
2023-03-17T04:51:02.480Z,1.95
2023-03-17T04:53:28.761Z,1.88
2023-03-17T04:55:55.236Z,1.90
2023-03-17T04:58:30.279Z,2.15
2023-03-17T05:01:00.625Z,2.03
2023-03-17T05:03:28.498Z,1.90
2023-03-17T05:05:55.497Z,1.92
2023-03-17T05:08:21.829Z,2.00
2023-03-17T05:10:48.188Z,2.22
2023-03-17T05:13:14.584Z,2.45
2023-03-17T05:15:41.149Z,2.17
2023-03-17T05:18:08.537Z,2.10
2023-03-17T05:20:34.814Z,2.13
2023-03-17T05:23:01.336Z,2.10
2023-03-17T05:25:27.696Z,2.33
2023-03-17T05:27:54.197Z,2.10
2023-03-17T05:30:20.669Z,2.30
2023-03-17T05:32:47.146Z,2.25
2023-03-17T05:35:13.708Z,1.98
2023-03-17T05:37:40.107Z,2.03
2023-03-17T05:40:06.598Z,2.05
2023-03-17T05:42:32.936Z,2.30
2023-03-17T05:44:59.412Z,2.50
2023-03-17T05:47:26.604Z,2.15
2023-03-17T05:49:52.895Z,2.30
2023-03-17T05:52:19.481Z,2.38
2023-03-17T05:54:48.999Z,2.15
2023-03-17T05:57:16.273Z,1.95
2023-03-17T05:59:42.883Z,2.22
2023-03-17T06:02:11.375Z,2.47
2023-03-17T06:04:44.383Z,2.13
2023-03-17T06:07:12.082Z,1.92
2023-03-17T06:09:38.545Z,2.17
2023-03-17T06:12:05.163Z,2.28
2023-03-17T06:14:31.511Z,1.90
2023-03-17T06:16:58.102Z,2.10
2023-03-17T06:19:24.434Z,1.95
2023-03-17T06:21:50.783Z,2.58
2023-03-17T06:24:17.256Z,2.22
2023-03-17T06:26:43.666Z,2.22
2023-03-17T06:29:10.164Z,2.40
2023-03-17T06:31:37.020Z,2.35
2023-03-17T06:34:03.665Z,2.72
2023-03-17T06:36:30.356Z,2.08
2023-03-17T06:38:56.734Z,2.08
2023-03-17T06:41:23.211Z,2.10
2023-03-17T06:43:52.266Z,2.40
2023-03-17T06:46:18.859Z,2.10
2023-03-17T06:48:45.329Z,2.33
2023-03-17T06:51:11.607Z,2.25
2023-03-17T06:53:37.987Z,2.53
2023-03-17T06:56:05.132Z,2.47
2023-03-17T06:58:31.940Z,2.30
2023-03-17T07:00:58.662Z,2.25
2023-03-17T07:03:25.451Z,2.47
2023-03-17T07:05:52.128Z,2.65
2023-03-17T07:08:19.503Z,2.65
2023-03-17T07:10:45.960Z,2.42
2023-03-17T07:13:14.772Z,2.33
2023-03-17T07:15:41.839Z,2.83
2023-03-17T07:18:08.243Z,2.78
2023-03-17T07:20:34.551Z,2.80
2023-03-17T07:23:01.256Z,2.60
2023-03-17T07:25:27.631Z,2.65
2023-03-17T07:27:54.105Z,2.63
2023-03-17T07:30:20.561Z,2.97
2023-03-17T07:32:47.576Z,3.88
2023-03-17T07:35:15.476Z,2.80
2023-03-17T07:37:42.003Z,2.35
2023-03-17T07:40:09.405Z,2.50
2023-03-17T07:42:36.831Z,2.50
2023-03-17T07:45:05.028Z,2.78
2023-03-17T07:47:31.492Z,2.80
2023-03-17T07:49:57.766Z,2.90
2023-03-17T07:52:24.044Z,2.75
2023-03-17T07:54:52.054Z,2.80
2023-03-17T07:57:18.492Z,2.45
2023-03-17T07:59:45.602Z,3.08
2023-03-17T08:02:16.308Z,2.78
2023-03-17T08:04:42.946Z,2.80
2023-03-17T08:07:10.749Z,2.88
2023-03-17T08:09:37.530Z,2.53
2023-03-17T08:12:04.545Z,2.97
2023-03-17T08:14:30.961Z,2.67
2023-03-17T08:16:57.446Z,2.70
2023-03-17T08:19:24.312Z,3.05
2023-03-17T08:21:51.014Z,2.90
2023-03-17T08:24:20.853Z,2.90
2023-03-17T08:26:48.068Z,2.78
2023-03-17T08:29:15.560Z,4.18
2023-03-17T08:31:42.832Z,2.72
2023-03-17T08:34:10.492Z,2.83
2023-03-17T08:36:36.871Z,2.65
2023-03-17T08:39:04.693Z,3.28
2023-03-17T08:41:31.266Z,2.75
2023-03-17T08:43:58.137Z,2.70
2023-03-17T08:46:25.996Z,2.95
2023-03-17T08:48:54.056Z,2.53
2023-03-17T08:51:24.257Z,3.03
2023-03-17T08:53:51.876Z,2.80
2023-03-17T08:56:18.256Z,2.42
2023-03-17T08:58:45.090Z,3.08
2023-03-17T09:01:12.012Z,3.10
2023-03-17T09:03:39.469Z,2.72
2023-03-17T09:06:06.978Z,2.72
2023-03-17T09:08:34.313Z,2.85
2023-03-17T09:11:02.264Z,2.83
2023-03-17T09:13:28.734Z,3.30
2023-03-17T09:15:56.088Z,2.80
2023-03-17T09:18:22.999Z,2.95
2023-03-17T09:20:49.328Z,3.17
2023-03-17T09:23:15.994Z,2.85
2023-03-17T09:25:42.902Z,2.55
2023-03-17T09:28:11.303Z,2.88
2023-03-17T09:30:39.952Z,2.92
2023-03-17T09:33:06.368Z,2.97
2023-03-17T09:35:32.891Z,3.03
2023-03-17T09:37:59.243Z,3.30
2023-03-17T09:40:32.821Z,3.00
2023-03-17T09:43:08.657Z,3.00
2023-03-17T09:45:37.346Z,3.08
2023-03-17T09:48:27.876Z,3.17
2023-03-17T09:51:14.278Z,3.47
2023-03-17T09:53:59.962Z,3.05
2023-03-17T09:56:27.813Z,3.10
2023-03-17T09:58:57.077Z,3.00
2023-03-17T10:01:23.508Z,2.90
2023-03-17T10:03:50.822Z,3.33
2023-03-17T10:06:29.484Z,3.30
2023-03-17T10:08:58.722Z,3.50
2023-03-17T10:11:25.243Z,3.35
2023-03-17T10:14:02.289Z,3.42
2023-03-17T10:16:36.931Z,3.47
2023-03-17T10:19:24.026Z,3.42
2023-03-17T10:21:53.846Z,3.38
2023-03-17T10:24:21.306Z,3.27
2023-03-17T10:26:50.846Z,3.17
2023-03-17T10:29:21.385Z,3.33
2023-03-17T10:31:48.766Z,3.20
2023-03-17T10:34:16.727Z,3.17
2023-03-17T10:36:45.616Z,3.05
2023-03-17T10:39:14.294Z,3.10
2023-03-17T10:41:41.993Z,2.90
2023-03-17T10:44:09.851Z,3.10
2023-03-17T10:46:37.948Z,3.10
2023-03-17T10:49:08.818Z,3.42
2023-03-17T10:51:36.814Z,3.40
2023-03-17T10:54:09.475Z,3.20
2023-03-17T10:56:37.554Z,3.05
2023-03-17T10:59:08.744Z,3.40
2023-03-17T11:01:40.086Z,3.50
2023-03-17T11:04:20.792Z,3.08
2023-03-17T11:09:21.268Z,3.53
2023-03-17T11:11:49.236Z,3.40
2023-03-17T11:14:18.545Z,3.33
2023-03-17T11:16:48.092Z,3.20
2023-03-17T11:19:16.116Z,3.70
2023-03-17T11:22:15.140Z,3.60
2023-03-17T11:25:00.428Z,3.75
2023-03-17T11:27:34.928Z,3.35
2023-03-17T11:30:08.456Z,3.40
2023-03-17T11:32:48.179Z,3.67
2023-03-17T11:35:23.668Z,3.67
2023-03-17T11:37:50.326Z,3.42
2023-03-17T11:40:23.922Z,3.20
2023-03-17T11:43:04.960Z,3.20
2023-03-17T11:45:57.544Z,3.28
2023-03-17T11:48:28.177Z,3.55
2023-03-17T11:53:24.801Z,3.70
2023-03-17T11:56:01.975Z,3.38
2023-03-17T11:58:37.097Z,3.83
2023-03-17T12:01:09.019Z,3.70
2023-03-17T12:03:42.487Z,3.90
2023-03-17T12:06:15.867Z,3.92
2023-03-17T12:08:47.352Z,4.03
2023-03-17T12:11:17.232Z,3.45
2023-03-17T12:13:53.216Z,3.70
2023-03-17T12:16:31.258Z,3.85
2023-03-17T12:19:11.431Z,4.05
2023-03-17T12:21:38.751Z,3.60
2023-03-17T12:24:41.063Z,3.80
2023-03-17T12:27:21.965Z,3.97
2023-03-17T12:29:59.321Z,4.18
2023-03-17T12:32:34.487Z,3.80
2023-03-17T12:35:22.245Z,4.38
2023-03-17T12:37:49.333Z,3.47
2023-03-17T12:40:20.488Z,3.80
2023-03-17T12:42:54.403Z,3.75
2023-03-17T12:45:36.550Z,3.80
2023-03-17T12:48:35.504Z,3.85
2023-03-17T12:51:08.967Z,3.97
2023-03-17T12:53:42.592Z,4.47
2023-03-17T12:56:09.406Z,3.97
2023-03-17T12:58:44.068Z,4.20
2023-03-17T13:04:18.109Z,4.18
2023-03-17T13:07:01.186Z,4.15
2023-03-17T13:09:42.748Z,3.75
2023-03-17T13:12:29.040Z,3.80
2023-03-17T13:14:58.454Z,3.65
2023-03-17T13:17:29.519Z,4.20
2023-03-17T13:20:09.435Z,4.05
2023-03-17T13:23:01.876Z,4.10
2023-03-17T13:25:32.420Z,4.18
2023-03-17T13:28:22.126Z,4.30
2023-03-17T13:30:51.458Z,4.28
2023-03-17T13:33:24.826Z,4.10
2023-03-17T13:36:10.825Z,5.45
2023-03-17T13:39:05.048Z,4.13
2023-03-17T13:41:48.586Z,4.20
2023-03-17T13:44:25.397Z,4.63
2023-03-17T13:46:52.084Z,4.53
2023-03-17T13:49:18.900Z,3.88
2023-03-17T13:52:04.428Z,4.07
2023-03-17T13:54:32.800Z,4.30
2023-03-17T13:57:19.387Z,4.20
2023-03-17T13:59:55.582Z,4.43
2023-03-17T14:02:24.072Z,4.30
2023-03-17T14:04:53.480Z,4.47
2023-03-17T14:07:21.448Z,4.00
2023-03-17T14:09:51.637Z,4.63
2023-03-17T14:12:22.620Z,4.50
2023-03-17T14:14:56.119Z,4.40
2023-03-17T14:17:27.972Z,4.45
2023-03-17T14:20:13.450Z,3.92
2023-03-17T14:22:43.815Z,4.35
2023-03-17T14:25:16.545Z,4.60
2023-03-17T14:27:44.113Z,4.43
2023-03-17T14:30:36.965Z,4.00
2023-03-17T14:33:23.171Z,4.45
2023-03-17T14:35:50.854Z,4.80
2023-03-17T14:38:20.045Z,5.03
2023-03-17T14:40:46.794Z,4.60
2023-03-17T14:43:13.680Z,3.65
2023-03-17T14:45:50.742Z,4.10
2023-03-17T14:48:19.789Z,4.22
2023-03-17T14:50:53.489Z,4.63
2023-03-17T14:53:20.877Z,4.05
2023-03-17T14:55:47.409Z,4.38
2023-03-17T14:58:24.825Z,3.80
2023-03-17T15:00:56.000Z,4.30
2023-03-17T15:03:24.127Z,4.07
2023-03-17T15:05:51.184Z,4.55
2023-03-17T15:08:37.845Z,4.30
2023-03-17T15:11:05.645Z,4.47
2023-03-17T15:13:36.765Z,4.28
2023-03-17T15:16:14.936Z,4.20
2023-03-17T15:18:41.340Z,4.03
2023-03-17T15:21:27.144Z,4.22
2023-03-17T15:23:53.673Z,4.30
2023-03-17T15:26:21.822Z,4.13
2023-03-17T15:28:48.272Z,4.13
2023-03-17T15:31:16.046Z,4.13
2023-03-17T15:33:42.584Z,4.00
2023-03-17T15:36:21.994Z,3.78
2023-03-17T15:38:57.472Z,3.90
2023-03-17T15:41:23.778Z,4.45
2023-03-17T15:43:50.072Z,4.10
2023-03-17T15:46:21.534Z,3.75
2023-03-17T15:48:47.961Z,4.32
2023-03-17T15:51:14.336Z,3.95
2023-03-17T15:53:40.732Z,4.45
2023-03-17T15:56:12.545Z,4.13
2023-03-17T15:58:38.825Z,4.05
2023-03-17T16:01:05.329Z,4.18
2023-03-17T16:03:35.528Z,4.22
2023-03-17T16:06:02.954Z,4.15
2023-03-17T16:08:29.258Z,4.93
2023-03-17T16:10:55.616Z,4.28
2023-03-17T16:13:22.462Z,4.40
2023-03-17T16:15:59.528Z,4.63
2023-03-17T16:18:31.787Z,4.20
2023-03-17T16:20:58.351Z,4.57
2023-03-17T16:23:27.106Z,4.95
2023-03-17T16:25:55.420Z,4.90
2023-03-17T16:28:30.233Z,5.18
2023-03-17T16:30:57.763Z,5.43
2023-03-17T16:33:25.059Z,5.38
2023-03-17T16:35:57.293Z,5.20
2023-03-17T16:38:24.656Z,5.20
2023-03-17T16:40:52.847Z,6.38
2023-03-17T16:43:25.853Z,5.70
2023-03-17T16:45:54.624Z,5.25
2023-03-17T16:48:21.148Z,5.65
2023-03-17T16:50:47.516Z,5.60
2023-03-17T16:53:13.928Z,5.13
2023-03-17T16:55:40.761Z,5.03
2023-03-17T16:58:15.105Z,5.40
2023-03-17T17:00:41.879Z,5.68
2023-03-17T17:03:08.323Z,4.95
2023-03-17T17:05:35.355Z,5.43
2023-03-17T17:08:01.715Z,5.32
2023-03-17T17:10:29.371Z,5.35
2023-03-17T17:12:55.827Z,5.75
2023-03-17T17:15:22.272Z,5.70
2023-03-17T17:17:53.858Z,5.75
2023-03-17T17:20:20.143Z,5.15
2023-03-17T17:22:46.539Z,5.25
2023-03-17T17:25:12.991Z,5.28
2023-03-17T17:27:40.496Z,5.30
2023-03-17T17:30:08.101Z,5.72
2023-03-17T17:32:34.971Z,5.97
2023-03-17T17:35:01.271Z,6.50
2023-03-17T17:37:27.804Z,6.10
2023-03-17T17:39:54.216Z,6.43
2023-03-17T17:42:20.904Z,6.43
2023-03-17T17:44:47.844Z,5.63
2023-03-17T17:47:14.189Z,6.38
2023-03-17T17:49:41.223Z,6.45
2023-03-17T17:52:10.836Z,7.13
2023-03-17T17:54:37.351Z,6.15
2023-03-17T17:57:04.060Z,6.22
2023-03-17T17:59:30.786Z,6.95
2023-03-17T18:01:57.127Z,6.60
2023-03-17T18:04:23.433Z,7.35
2023-03-17T18:06:49.821Z,8.18
2023-03-17T18:09:18.126Z,7.72
2023-03-17T18:11:44.491Z,8.63
2023-03-17T18:14:11.001Z,8.57
2023-03-17T18:16:37.694Z,8.45
2023-03-17T18:19:06.041Z,8.93
2023-03-17T18:21:33.407Z,7.88
2023-03-17T18:23:59.967Z,8.07
2023-03-17T18:26:26.608Z,7.80
2023-03-17T18:28:55.636Z,7.78
2023-03-17T18:31:23.804Z,7.68
2023-03-17T18:33:51.974Z,7.15
2023-03-17T18:36:19.757Z,6.90
2023-03-17T18:38:46.087Z,7.18
2023-03-17T18:41:13.973Z,7.18
2023-03-17T18:43:44.861Z,7.32
2023-03-17T18:46:14.712Z,7.80
2023-03-17T18:48:41.288Z,7.67
2023-03-17T18:51:08.243Z,7.78
2023-03-17T18:53:39.768Z,7.95
2023-03-17T18:56:20.868Z,7.97
2023-03-17T18:58:47.386Z,8.23
2023-03-17T19:01:26.247Z,7.50
2023-03-17T19:04:00.151Z,7.90
2023-03-17T19:06:29.908Z,7.80
2023-03-17T19:09:04.966Z,7.07
2023-03-17T19:11:35.672Z,7.22
2023-03-17T19:16:29.131Z,7.00
2023-03-17T19:18:59.027Z,7.47
2023-03-17T19:21:28.377Z,6.23
2023-03-17T19:23:55.165Z,6.68
2023-03-17T19:26:21.799Z,6.60
2023-03-17T19:28:48.299Z,6.18
2023-03-17T19:31:15.014Z,6.13
2023-03-17T19:33:41.683Z,5.28
2023-03-17T19:36:09.982Z,5.63
2023-03-17T19:38:36.755Z,5.50
2023-03-17T19:41:03.586Z,5.20
2023-03-17T19:43:40.407Z,4.05
2023-03-17T19:46:08.010Z,4.20
2023-03-17T19:48:34.661Z,4.80
2023-03-17T19:51:02.078Z,3.63
2023-03-17T19:53:28.690Z,3.53
2023-03-17T19:55:56.747Z,3.10
2023-03-17T19:58:23.210Z,3.47
2023-03-17T20:00:52.077Z,3.33
2023-03-17T20:03:18.908Z,3.50
2023-03-17T20:05:46.476Z,3.65
2023-03-17T20:08:12.909Z,3.70
2023-03-17T20:10:39.467Z,3.33
2023-03-17T20:13:09.190Z,3.70
2023-03-17T20:15:36.764Z,3.95
2023-03-17T20:18:03.988Z,4.18
2023-03-17T20:20:31.336Z,4.47
2023-03-17T20:22:57.849Z,4.40
2023-03-17T20:25:24.624Z,4.20
2023-03-17T20:27:51.123Z,4.22
2023-03-17T20:30:17.564Z,4.35
2023-03-17T20:32:44.239Z,4.68
2023-03-17T20:35:11.075Z,5.00
2023-03-17T20:37:38.622Z,5.03
2023-03-17T20:40:08.108Z,5.38
2023-03-17T20:42:34.442Z,5.78
2023-03-17T20:45:03.281Z,5.20
2023-03-17T20:47:29.762Z,5.55
2023-03-17T20:49:58.748Z,6.47
2023-03-17T20:52:26.489Z,5.63
2023-03-17T20:54:53.843Z,5.80
2023-03-17T20:57:20.254Z,6.13
2023-03-17T20:59:46.894Z,7.70
2023-03-17T21:02:14.823Z,6.10
2023-03-17T21:04:46.483Z,6.03
2023-03-17T21:07:13.974Z,5.70
2023-03-17T21:09:41.543Z,6.20
2023-03-17T21:12:11.668Z,6.38
2023-03-17T21:14:38.116Z,5.80
2023-03-17T21:17:04.530Z,6.55
2023-03-17T21:19:31.879Z,5.72
2023-03-17T21:21:58.722Z,5.50
2023-03-17T21:24:31.228Z,5.38
2023-03-17T21:26:59.564Z,6.53
2023-03-17T21:29:26.375Z,5.72
2023-03-17T21:31:52.991Z,5.60
2023-03-17T21:34:19.494Z,5.65
2023-03-17T21:36:46.266Z,5.38
2023-03-17T21:39:12.585Z,5.70
2023-03-17T21:41:39.445Z,5.65
2023-03-17T21:44:06.255Z,5.40
2023-03-17T21:46:33.771Z,5.50
2023-03-17T21:49:00.380Z,5.68
2023-03-17T21:51:27.329Z,5.55
2023-03-17T21:53:53.958Z,5.53
2023-03-17T21:56:20.754Z,6.00
2023-03-17T21:58:48.904Z,6.55
2023-03-17T22:01:16.150Z,6.13
2023-03-17T22:03:43.035Z,6.65
2023-03-17T22:06:09.867Z,6.65
2023-03-17T22:08:36.271Z,7.15
2023-03-17T22:11:13.238Z,6.95
2023-03-17T22:13:40.072Z,6.55
2023-03-17T22:16:06.762Z,6.35
2023-03-17T22:18:33.309Z,6.50
2023-03-17T22:21:00.192Z,7.55
2023-03-17T22:23:27.713Z,8.05
2023-03-17T22:25:54.033Z,6.97
2023-03-17T22:28:20.461Z,6.65
2023-03-17T22:30:46.779Z,6.40
2023-03-17T22:33:13.730Z,7.00
2023-03-17T22:35:40.252Z,6.65
2023-03-17T22:38:06.904Z,7.20
2023-03-17T22:40:33.911Z,7.13
2023-03-17T22:43:00.403Z,6.88
2023-03-17T22:45:27.127Z,6.55
2023-03-17T22:47:54.267Z,6.65
2023-03-17T22:50:20.694Z,7.15
2023-03-17T22:52:47.180Z,6.70
2023-03-17T22:55:13.670Z,6.95
2023-03-17T22:57:40.365Z,6.90
2023-03-17T23:00:13.419Z,7.35
2023-03-17T23:02:40.992Z,7.55
2023-03-17T23:05:08.458Z,7.38
2023-03-17T23:07:44.291Z,7.38
2023-03-17T23:10:17.754Z,6.90
2023-03-17T23:12:44.728Z,7.40
2023-03-17T23:15:11.421Z,7.78
2023-03-17T23:17:37.737Z,8.40
2023-03-17T23:20:05.441Z,8.45
2023-03-17T23:22:32.000Z,9.02
2023-03-17T23:24:58.417Z,7.88
2023-03-17T23:27:24.771Z,8.13
2023-03-17T23:29:51.341Z,7.80
2023-03-17T23:32:18.053Z,8.35
2023-03-17T23:34:44.739Z,7.80
2023-03-17T23:37:11.300Z,7.93
2023-03-17T23:39:37.691Z,7.90
2023-03-17T23:42:04.099Z,7.75
2023-03-17T23:44:30.871Z,8.48
2023-03-17T23:46:57.279Z,8.80
2023-03-17T23:49:24.419Z,8.10
2023-03-17T23:51:50.753Z,8.77
2023-03-17T23:54:17.149Z,8.40
2023-03-17T23:56:43.611Z,8.07
2023-03-17T23:59:10.786Z,8.25
